メインページ
METAR-TAF:

METAR-TAF

空港 :

ハルツーム, スーダン

ハルツーム国際空港

緯度: 15-36N, 経度: 032-33E, 海抜: 382m

現時点の気象観測

当レポートは40分前の23:00(UTC)に作成
の風 12kt
気温 33°C
湿度 7%
気圧 1007 hPa
視程10km以上
1,500メートル以下は雲なし、積乱雲なし

METAR: HSSS 232300Z 35012KT CAVOK 33/M08 Q1007 NOSIG

時間: 02:40 (23:40 UTC)

予報

当レポートは6時間40分前の17:00(UTC)に作成
予報は23日の 18時(UTC)から 24日の 24時(UTC)まで有効
の風 12kt、最大22ktの突風を伴う
視程10km以上
1,500メートル以下は雲なし、積乱雲なし
23日の 18時(UTC)から 23日の 22時(UTC)まで一時的に
視程: 6000m

TAF: HSSS 231700Z 2318/2424 36012G22KT CAVOK TEMPO 2318/2322 6000

4,000以上の空港の気象観測と天気予報(METAR報とTAF報)

利用可能な観測所は地図上に黄色い丸と赤い丸で示す。

丸の上にカーソルを重ねると観測所名を参照できる。

次にクリックすると気象観測と天気予報を参照できる。

マップの切り替え:黒色「×」印の緑ボタンをクリックして拡大、「-」印の緑ボタンをクリックして縮小、緑色の三角印をクリックして隣りの地図に切り替え


METAR-TAF: